| time (UTC) | temp F | wind direction | speed knots | gust knots | rain 1hr in | rain 24hr in | rain mn in | humidity % | barometer mb |
| 20260508023055 | 45 | 212 | 0.0 | 0.0 | 0.00 | 0.26 | 0.25 | 79 | 1009.3 |
| 20260508021554 | 46 | 212 | 0.0 | 0.0 | 0.00 | 0.26 | 0.25 | 79 | 1009.4 |
| 20260508014549 | 48 | 212 | 0.0 | 0.0 | 0.00 | 0.26 | 0.25 | 76 | 1009.2 |
| 20260508013047 | 49 | 212 | 0.0 | 0.0 | 0.00 | 0.26 | 0.25 | 76 | 1009.0 |
| 20260508011550 | 50 | 212 | 0.0 | 0.0 | 0.00 | 0.26 | 0.25 | 74 | 1008.8 |
| 20260508010051 | 51 | 212 | 0.0 | 0.0 | 0.00 | 0.26 | 0.25 | 72 | 1008.8 |
| 20260508004548 | 52 | 212 | 0.0 | 0.0 | 0.00 | 0.26 | 0.25 | 71 | 1008.5 |
| 20260508003049 | 53 | 212 | 0.0 | 0.0 | 0.00 | 0.26 | 0.25 | 71 | 1008.3 |
| 20260508001546 | 54 | 212 | 0.0 | 0.0 | 0.00 | 0.26 | 0.25 | 67 | 1008.2 |
| 20260508000045 | 55 | 212 | 0.0 | 0.0 | 0.00 | 0.26 | 0.25 | 64 | 1008.0 |
| 20260507234545 | 56 | 212 | 0.0 | 0.0 | 0.00 | 0.26 | 0.25 | 62 | 1007.9 |
| 20260507233044 | 57 | 212 | 0.0 | 0.0 | 0.00 | 0.26 | 0.25 | 58 | 1007.9 |
| 20260507231546 | 58 | 212 | 0.0 | 0.0 | 0.00 | 0.26 | 0.25 | 57 | 1007.6 |
| 20260507230044 | 59 | 212 | 0.0 | 0.0 | 0.00 | 0.26 | 0.25 | 54 | 1007.6 |
| 20260507224545 | 61 | 212 | 0.0 | 0.0 | 0.00 | 0.26 | 0.25 | 51 | 1007.7 |
| 20260507223042 | 61 | 212 | 0.0 | 0.0 | 0.00 | 0.26 | 0.25 | 51 | 1007.7 |
| 20260507221542 | 62 | 215 | 0.0 | 0.0 | 0.00 | 0.26 | 0.25 | 47 | 1007.7 |
| 20260507220041 | 63 | 213 | 0.0 | 0.0 | 0.00 | 0.26 | 0.25 | 40 | 1007.7 |
| 20260507214546 | 64 | 222 | 0.0 | 0.0 | 0.00 | 0.26 | 0.25 | 35 | 1007.9 |
| 20260507213041 | 65 | 239 | 0.0 | 0.0 | 0.00 | 0.26 | 0.25 | 38 | 1007.7 |
| 20260507211543 | 66 | 282 | 0.0 | 0.0 | 0.00 | 0.26 | 0.25 | 39 | 1007.6 |
| 20260507210038 | 64 | 271 | 0.0 | 0.0 | 0.00 | 0.26 | 0.25 | 34 | 1007.4 |
| 20260507204538 | 63 | 205 | 0.0 | 0.0 | 0.00 | 0.26 | 0.25 | 35 | 1007.3 |
| 20260507203038 | 63 | 280 | 0.0 | 0.0 | 0.00 | 0.26 | 0.25 | 37 | 1007.5 |
| 20260507201535 | 64 | 72 | 0.0 | 0.0 | 0.00 | 0.26 | 0.25 | 35 | 1007.6 |
| 20260507200034 | 65 | 305 | 0.0 | 1.7 | 0.00 | 0.26 | 0.25 | 37 | 1007.8 |
| 20260507194533 | 66 | 270 | 0.0 | 0.0 | 0.00 | 0.26 | 0.25 | 32 | 1007.8 |
| 20260507193035 | 65 | 43 | 0.0 | 0.0 | 0.00 | 0.26 | 0.25 | 34 | 1008.0 |
| 20260507191529 | 65 | 146 | 0.0 | 0.0 | 0.00 | 0.26 | 0.25 | 34 | 1008.2 |
| 20260507190028 | 65 | 163 | 0.0 | 0.0 | 0.00 | 0.26 | 0.25 | 39 | 1008.3 |
| 20260507184525 | 64 | 287 | 0.0 | 0.0 | 0.00 | 0.27 | 0.25 | 36 | 1008.4 |
| 20260507183039 | 64 | 168 | 0.0 | 0.0 | 0.00 | 0.27 | 0.25 | 40 | 1008.6 |
| 20260507181521 | 64 | 316 | 0.0 | 0.0 | 0.00 | 0.27 | 0.25 | 42 | 1008.8 |
| 20260507180021 | 64 | 296 | 0.0 | 0.0 | 0.00 | 0.27 | 0.25 | 37 | 1008.8 |
| 20260507174519 | 63 | 55 | 0.0 | 0.0 | 0.00 | 0.28 | 0.25 | 41 | 1009.3 |
| 20260507173016 | 63 | 259 | 0.0 | 0.0 | 0.00 | 0.28 | 0.25 | 41 | 1009.5 |
| 20260507171514 | 62 | 271 | 0.0 | 0.0 | 0.00 | 0.28 | 0.25 | 47 | 1009.7 |
| 20260507170016 | 61 | 286 | 0.0 | 0.0 | 0.00 | 0.31 | 0.25 | 48 | 1009.8 |
| 20260507164512 | 62 | 268 | 0.0 | 0.0 | 0.00 | 0.31 | 0.25 | 45 | 1010.0 |
| 20260507163011 | 62 | 248 | 0.0 | 0.0 | 0.00 | 0.31 | 0.25 | 47 | 1010.2 |
| 20260507161509 | 61 | 261 | 0.0 | 0.0 | 0.00 | 0.31 | 0.25 | 50 | 1010.3 |
| 20260507160017 | 60 | 118 | 0.0 | 0.0 | 0.00 | 0.32 | 0.25 | 56 | 1010.5 |
| 20260507154502 | 59 | 190 | 0.0 | 0.0 | 0.00 | 0.32 | 0.25 | 52 | 1010.6 |
| 20260507153105 | 58 | 329 | 0.0 | 0.0 | 0.00 | 0.32 | 0.25 | 56 | 1011.1 |
| 20260507151558 | 58 | 252 | 0.0 | 0.0 | 0.00 | 0.32 | 0.25 | 58 | 1011.1 |
| 20260507150055 | 57 | 271 | 0.0 | 0.0 | 0.00 | 0.32 | 0.25 | 62 | 1011.2 |
| 20260507144553 | 56 | 16 | 0.9 | 3.5 | 0.00 | 0.32 | 0.25 | 68 | 1011.5 |
| 20260507143051 | 55 | 340 | 0.9 | 2.6 | 0.00 | 0.32 | 0.25 | 74 | 1011.7 |
| 20260507141548 | 54 | 273 | 0.9 | 5.2 | 0.00 | 0.32 | 0.25 | 76 | 1011.7 |
| 20260507140055 | 53 | 271 | 0.9 | 4.3 | 0.00 | 0.32 | 0.25 | 77 | 1011.8 |
| 20260507134543 | 52 | 202 | 0.0 | 2.6 | 0.00 | 0.32 | 0.25 | 83 | 1011.8 |
| 20260507133042 | 51 | 261 | 0.9 | 3.5 | 0.00 | 0.32 | 0.25 | 83 | 1011.8 |
| 20260507131541 | 50 | 210 | 0.0 | 2.6 | 0.00 | 0.32 | 0.25 | 85 | 1011.8 |
| 20260507130050 | 50 | 157 | 0.0 | 0.0 | 0.00 | 0.32 | 0.25 | 86 | 1011.9 |
| 20260507124551 | 49 | 157 | 0.0 | 0.0 | 0.00 | 0.32 | 0.25 | 86 | 1011.8 |
| 20260507123033 | 49 | 157 | 0.0 | 0.9 | 0.00 | 0.32 | 0.25 | 86 | 1011.7 |
| 20260507121530 | 49 | 153 | 0.0 | 2.6 | 0.00 | 0.32 | 0.25 | 86 | 1011.8 |
| 20260507120029 | 49 | 229 | 0.0 | 1.7 | 0.00 | 0.32 | 0.25 | 86 | 1011.8 |
| 20260507114529 | 49 | 233 | 0.0 | 0.9 | 0.00 | 0.32 | 0.25 | 86 | 1011.3 |
| 20260507113025 | 49 | 233 | 0.0 | 0.0 | 0.00 | 0.32 | 0.25 | 87 | 1011.3 |
| 20260507111524 | 49 | 233 | 0.0 | 0.0 | 0.00 | 0.32 | 0.25 | 86 | 1011.2 |
| 20260507110028 | 49 | 233 | 0.0 | 0.0 | 0.00 | 0.32 | 0.25 | 86 | 1010.8 |
| 20260507104519 | 48 | 233 | 0.0 | 0.0 | 0.00 | 0.32 | 0.25 | 86 | 1010.6 |
| 20260507103017 | 48 | 233 | 0.0 | 0.9 | 0.00 | 0.32 | 0.25 | 86 | 1010.5 |
| 20260507101514 | 48 | 233 | 0.0 | 0.0 | 0.00 | 0.32 | 0.25 | 86 | 1010.2 |
| 20260507100021 | 48 | 233 | 0.0 | 0.0 | 0.00 | 0.32 | 0.25 | 86 | 1010.3 |
| 20260507094511 | 48 | 233 | 0.0 | 0.0 | 0.00 | 0.32 | 0.25 | 86 | 1010.1 |
| 20260507093018 | 48 | 233 | 0.0 | 0.0 | 0.00 | 0.32 | 0.25 | 86 | 1010.1 |
| 20260507091518 | 48 | 233 | 0.0 | 0.9 | 0.01 | 0.32 | 0.25 | 86 | 1009.8 |
| 20260507090009 | 48 | 233 | 0.0 | 0.0 | 0.02 | 0.32 | 0.25 | 86 | 1009.9 |
| 20260507084509 | 49 | 233 | 0.0 | 0.0 | 0.04 | 0.32 | 0.25 | 85 | 1009.7 |
| 20260507083008 | 49 | 233 | 0.0 | 0.0 | 0.06 | 0.32 | 0.25 | 85 | 1009.9 |
| 20260507081506 | 49 | 233 | 0.0 | 0.0 | 0.05 | 0.31 | 0.24 | 86 | 1010.1 |
| 20260507080005 | 49 | 233 | 0.0 | 0.9 | 0.04 | 0.30 | 0.23 | 85 | 1010.3 |
| 20260507074505 | 49 | 233 | 0.0 | 1.7 | 0.04 | 0.28 | 0.21 | 85 | 1010.1 |
| 20260507073001 | 49 | 242 | 0.0 | 2.6 | 0.06 | 0.26 | 0.19 | 85 | 1010.4 |
| 20260507071559 | 50 | 108 | 0.9 | 4.3 | 0.06 | 0.26 | 0.19 | 85 | 1010.3 |
| 20260507070115 | 50 | 258 | 0.9 | 4.3 | 0.08 | 0.26 | 0.19 | 85 | 1010.4 |
| 20260507064605 | 50 | 294 | 0.0 | 1.7 | 0.09 | 0.24 | 0.17 | 85 | 1010.3 |
| 20260507063059 | 50 | 294 | 0.0 | 1.7 | 0.10 | 0.20 | 0.13 | 84 | 1010.0 |
| 20260507061553 | 51 | 211 | 0.0 | 1.7 | 0.12 | 0.20 | 0.13 | 84 | 1010.2 |
| 20260507060051 | 51 | 214 | 0.0 | 0.9 | 0.11 | 0.18 | 0.11 | 83 | 1009.8 |
| 20260507054553 | 52 | 214 | 0.0 | 3.5 | 0.07 | 0.14 | 0.07 | 83 | 1009.8 |
| 20260507053046 | 53 | 213 | 0.9 | 3.5 | 0.03 | 0.10 | 0.03 | 81 | 1009.7 |
| 20260507051543 | 54 | 102 | 0.0 | 3.5 | 0.01 | 0.08 | 0.01 | 78 | 1008.9 |
| 20260507050040 | 54 | 227 | 0.0 | 2.6 | 0.00 | 0.07 | 0.00 | 79 | 1008.8 |
| 20260507044542 | 55 | 263 | 0.0 | 1.7 | 0.00 | 0.07 | 0.00 | 80 | 1008.8 |
| 20260507043039 | 55 | 263 | 0.0 | 2.6 | 0.00 | 0.07 | 0.00 | 79 | 1009.3 |
| 20260507041535 | 55 | 229 | 0.0 | 3.5 | 0.00 | 0.07 | 0.00 | 80 | 1009.0 |
| 20260507040034 | 56 | 219 | 0.0 | 4.3 | 0.00 | 0.07 | 0.00 | 80 | 1009.0 |
| 20260507034536 | 56 | 243 | 0.9 | 2.6 | 0.00 | 0.07 | 0.07 | 81 | 1009.2 |
| 20260507033029 | 57 | 211 | 0.9 | 2.6 | 0.00 | 0.07 | 0.07 | 82 | 1008.9 |
| 20260507031526 | 57 | 276 | 0.0 | 2.6 | 0.01 | 0.07 | 0.07 | 81 | 1009.0 |
| 20260507030023 | 59 | 331 | 0.0 | 4.3 | 0.01 | 0.07 | 0.07 | 81 | 1008.6 |
| 20260507024523 | 62 | 292 | 0.9 | 5.2 | 0.01 | 0.07 | 0.07 | 82 | 1008.6 |